Time;durP1;ratioP1;P1;durP2;ratioP2;P2;SDS_P1;SDS_P2;PMS_P1;PMS_P2;Temp;Humidity;BMP_temperature;BMP_pressure;BME280_temperature;BME280_humidity;BME280_pressure;Samples;Min_cycle;Max_cycle;Signal;HPM_P1;HPM_P2
2023/04/15 00:00:07;;;;;;;11.38;7.10;;;;;;;;;;5111698;28;20058;-61
2023/04/15 00:02:34;;;;;;;12.65;8.27;;;;;;;;;;5112029;28;20027;-64
2023/04/15 00:05:00;;;;;;;13.82;7.88;;;;;;;;;;5111700;28;20383;-63
2023/04/15 00:07:26;;;;;;;12.52;8.05;;;;;;;;;;5111646;28;20465;-62
2023/04/15 00:09:55;;;;;;;12.98;8.57;;;;;;;;;;5111760;28;20031;-62
2023/04/15 00:12:21;;;;;;;13.80;8.30;;;;;;;;;;5111036;28;20024;-62
2023/04/15 00:14:47;;;;;;;13.00;8.40;;;;;;;;;;5110061;28;20046;-62
2023/04/15 00:17:13;;;;;;;12.73;7.78;;;;;;;;;;5111750;28;20073;-62
2023/04/15 00:19:39;;;;;;;14.07;8.18;;;;;;;;;;5110102;28;20039;-64
2023/04/15 00:22:05;;;;;;;14.30;8.77;;;;;;;;;;5111684;28;20027;-63
2023/04/15 00:24:32;;;;;;;13.45;8.05;;;;;;;;;;5109929;28;20129;-63
2023/04/15 00:26:58;;;;;;;12.32;8.10;;;;;;;;;;5111328;28;20079;-62
2023/04/15 00:29:24;;;;;;;14.73;7.72;;;;;;;;;;5111659;28;20237;-62
2023/04/15 00:31:51;;;;;;;12.80;7.80;;;;;;;;;;5111474;28;20051;-62
2023/04/15 00:34:17;;;;;;;14.25;8.55;;;;;;;;;;5111369;28;20039;-63
2023/04/15 00:36:43;;;;;;;17.10;8.93;;;;;;;;;;5111565;28;20396;-62
2023/04/15 00:39:09;;;;;;;13.02;8.75;;;;;;;;;;5111297;28;20430;-63
2023/04/15 00:41:38;;;;;;;12.68;8.50;;;;;;;;;;5111186;28;20103;-63
2023/04/15 00:44:05;;;;;;;15.70;7.90;;;;;;;;;;5111332;28;20047;-62
2023/04/15 00:46:31;;;;;;;13.75;8.38;;;;;;;;;;5111082;28;20555;-62
2023/04/15 00:48:57;;;;;;;11.43;8.20;;;;;;;;;;5111229;28;20076;-62
2023/04/15 00:51:24;;;;;;;13.43;8.43;;;;;;;;;;5111216;28;20502;-62
2023/04/15 00:53:50;;;;;;;11.65;7.50;;;;;;;;;;5111083;28;20072;-62
2023/04/15 00:56:17;;;;;;;14.07;8.23;;;;;;;;;;5111029;28;20035;-63
2023/04/15 00:58:43;;;;;;;15.20;10.25;;;;;;;;;;5111248;28;20168;-62
2023/04/15 01:01:09;;;;;;;16.80;9.52;;;;;;;;;;5111088;28;20039;-62
2023/04/15 01:03:36;;;;;;;16.00;9.32;;;;;;;;;;5111243;28;20102;-62
2023/04/15 01:06:02;;;;;;;14.20;7.88;;;;;;;;;;5111200;28;20382;-62
2023/04/15 01:08:29;;;;;;;14.00;7.93;;;;;;;;;;5111128;28;20024;-62
2023/04/15 01:10:56;;;;;;;15.30;8.60;;;;;;;;;;5109625;28;20031;-62
2023/04/15 01:13:23;;;;;;;13.52;7.90;;;;;;;;;;5111058;28;20028;-62
2023/04/15 01:15:50;;;;;;;14.68;8.25;;;;;;;;;;5111191;28;20038;-62
2023/04/15 01:18:16;;;;;;;15.98;8.77;;;;;;;;;;5110790;28;20020;-62
2023/04/15 01:20:42;;;;;;;13.68;8.23;;;;;;;;;;5111074;28;20034;-62
2023/04/15 01:23:09;;;;;;;14.50;8.25;;;;;;;;;;5111401;28;20099;-62
2023/04/15 01:25:35;;;;;;;15.75;8.80;;;;;;;;;;5114669;28;20020;-62
2023/04/15 01:28:02;;;;;;;15.30;9.00;;;;;;;;;;5114749;28;20019;-62
2023/04/15 01:30:28;;;;;;;17.63;9.45;;;;;;;;;;5114605;28;20034;-61
2023/04/15 01:32:54;;;;;;;20.10;10.32;;;;;;;;;;5114252;28;20111;-63
2023/04/15 01:35:21;;;;;;;18.85;10.40;;;;;;;;;;5114457;28;20023;-63
2023/04/15 01:37:47;;;;;;;18.90;10.20;;;;;;;;;;5114166;28;20042;-64
2023/04/15 01:40:14;;;;;;;20.27;10.55;;;;;;;;;;5114321;28;20552;-62
2023/04/15 01:42:40;;;;;;;18.70;10.32;;;;;;;;;;5114389;28;20039;-62
2023/04/15 01:45:07;;;;;;;20.90;11.20;;;;;;;;;;5114040;28;20173;-63
2023/04/15 01:47:33;;;;;;;18.70;9.82;;;;;;;;;;5114108;28;20038;-63
2023/04/15 01:49:59;;;;;;;20.23;10.60;;;;;;;;;;5114061;28;20047;-62
2023/04/15 01:52:25;;;;;;;21.27;10.63;;;;;;;;;;5114058;28;20046;-62
2023/04/15 01:54:51;;;;;;;17.85;9.45;;;;;;;;;;5113858;28;20381;-62
2023/04/15 01:57:17;;;;;;;20.77;10.70;;;;;;;;;;5113916;28;20545;-61
2023/04/15 01:59:43;;;;;;;22.83;10.70;;;;;;;;;;5114063;28;20039;-61
2023/04/15 02:02:09;;;;;;;19.38;10.20;;;;;;;;;;5113872;28;20077;-62
2023/04/15 02:04:35;;;;;;;17.75;9.30;;;;;;;;;;5113964;28;20092;-62
2023/04/15 02:07:01;;;;;;;17.60;9.73;;;;;;;;;;5113837;28;20080;-62
2023/04/15 02:09:27;;;;;;;17.65;9.00;;;;;;;;;;5113920;28;20046;-63
2023/04/15 02:11:53;;;;;;;16.02;8.90;;;;;;;;;;5113698;28;20024;-62
2023/04/15 02:14:19;;;;;;;16.80;9.27;;;;;;;;;;5113967;28;20028;-63
2023/04/15 02:16:45;;;;;;;17.42;9.60;;;;;;;;;;5113689;28;20023;-61
2023/04/15 02:19:12;;;;;;;19.38;10.00;;;;;;;;;;5113515;28;20043;-62
2023/04/15 02:21:39;;;;;;;18.13;9.82;;;;;;;;;;5113595;28;20027;-62
2023/04/15 02:24:05;;;;;;;18.15;9.77;;;;;;;;;;5113388;28;20024;-63
2023/04/15 02:26:32;;;;;;;21.02;10.00;;;;;;;;;;5113601;28;20400;-63
2023/04/15 02:28:58;;;;;;;22.42;10.15;;;;;;;;;;5113418;28;20046;-63
2023/04/15 02:31:24;;;;;;;18.52;10.20;;;;;;;;;;5113258;28;20034;-62
2023/04/15 02:33:50;;;;;;;18.42;10.77;;;;;;;;;;5112899;28;20027;-60
2023/04/15 02:36:17;;;;;;;18.95;9.18;;;;;;;;;;5113261;28;20110;-62
2023/04/15 02:38:43;;;;;;;19.75;10.65;;;;;;;;;;5113279;28;20051;-62
2023/04/15 02:41:09;;;;;;;17.50;9.70;;;;;;;;;;5112966;28;20533;-62
2023/04/15 02:43:35;;;;;;;20.60;9.90;;;;;;;;;;5113195;28;20031;-62
2023/04/15 02:46:01;;;;;;;18.35;10.25;;;;;;;;;;5112699;28;20044;-61
2023/04/15 02:48:28;;;;;;;20.25;10.93;;;;;;;;;;5113106;28;20479;-62
2023/04/15 02:50:54;;;;;;;19.70;10.02;;;;;;;;;;5112955;28;20015;-62
2023/04/15 02:53:20;;;;;;;19.65;10.88;;;;;;;;;;5112611;28;20065;-62
2023/04/15 02:55:46;;;;;;;18.45;9.05;;;;;;;;;;5112820;28;20047;-62
2023/04/15 02:58:12;;;;;;;15.60;8.70;;;;;;;;;;5112887;28;20035;-61
2023/04/15 03:00:38;;;;;;;15.70;8.32;;;;;;;;;;5112907;28;20064;-63
2023/04/15 03:03:05;;;;;;;15.82;7.65;;;;;;;;;;5112675;28;20027;-62
2023/04/15 03:05:31;;;;;;;16.30;8.55;;;;;;;;;;5112928;28;20027;-62
2023/04/15 03:07:57;;;;;;;13.23;7.65;;;;;;;;;;5112837;28;20035;-62
2023/04/15 03:10:23;;;;;;;15.50;8.30;;;;;;;;;;5112602;28;20020;-61
2023/04/15 03:12:49;;;;;;;11.88;6.53;;;;;;;;;;5112650;28;20481;-62
2023/04/15 03:15:16;;;;;;;15.55;7.35;;;;;;;;;;5112518;28;20034;-63
2023/04/15 03:17:43;;;;;;;12.20;6.88;;;;;;;;;;5112251;28;20393;-62
2023/04/15 03:20:09;;;;;;;12.27;7.80;;;;;;;;;;5111131;28;20028;-62
2023/04/15 03:22:35;;;;;;;15.60;7.63;;;;;;;;;;5112416;28;20063;-63
2023/04/15 03:25:01;;;;;;;10.07;6.38;;;;;;;;;;5112125;28;20035;-61
2023/04/15 03:27:27;;;;;;;12.77;7.00;;;;;;;;;;5112234;28;20045;-61
2023/04/15 03:29:53;;;;;;;11.15;6.30;;;;;;;;;;5112162;28;20011;-62
2023/04/15 03:32:19;;;;;;;9.55;5.72;;;;;;;;;;5112143;28;20030;-62
2023/04/15 03:34:45;;;;;;;9.05;5.47;;;;;;;;;;5112170;28;20022;-62
2023/04/15 03:37:11;;;;;;;8.35;4.82;;;;;;;;;;5112336;28;20035;-62
2023/04/15 03:39:37;;;;;;;9.60;5.75;;;;;;;;;;5112070;28;20039;-62
2023/04/15 03:42:03;;;;;;;9.32;5.22;;;;;;;;;;5112064;28;20503;-62
2023/04/15 03:44:29;;;;;;;7.90;5.47;;;;;;;;;;5111978;28;20460;-62
2023/04/15 03:46:55;;;;;;;8.40;5.55;;;;;;;;;;5110967;28;20081;-62
2023/04/15 03:49:22;;;;;;;12.23;6.45;;;;;;;;;;5111866;28;20620;-62
2023/04/15 03:51:48;;;;;;;12.10;6.55;;;;;;;;;;5111807;28;20024;-62
2023/04/15 03:54:14;;;;;;;10.50;5.63;;;;;;;;;;5111872;28;20023;-61
2023/04/15 03:56:40;;;;;;;12.02;6.15;;;;;;;;;;5111889;28;20043;-62
2023/04/15 03:59:06;;;;;;;10.40;6.60;;;;;;;;;;5111612;28;20035;-62
2023/04/15 04:01:32;;;;;;;12.23;6.88;;;;;;;;;;5111526;28;20024;-62
2023/04/15 04:03:58;;;;;;;10.27;5.97;;;;;;;;;;5111869;28;20036;-62
2023/04/15 04:06:25;;;;;;;12.05;6.40;;;;;;;;;;5111811;28;20019;-62
2023/04/15 04:08:51;;;;;;;9.77;6.18;;;;;;;;;;5111918;28;20023;-62
2023/04/15 04:11:17;;;;;;;7.78;5.43;;;;;;;;;;5111854;28;20028;-62
2023/04/15 04:13:43;;;;;;;10.82;6.05;;;;;;;;;;5111620;28;20098;-62
2023/04/15 04:16:09;;;;;;;10.18;5.80;;;;;;;;;;5111415;28;20467;-62
2023/04/15 04:18:36;;;;;;;9.20;5.07;;;;;;;;;;5111791;28;20023;-62
2023/04/15 04:21:02;;;;;;;9.10;5.18;;;;;;;;;;5111789;28;20024;-63
2023/04/15 04:23:28;;;;;;;6.32;4.53;;;;;;;;;;5111436;28;20041;-61
2023/04/15 04:25:54;;;;;;;11.55;5.13;;;;;;;;;;5111398;28;20520;-61
2023/04/15 04:28:20;;;;;;;7.13;5.22;;;;;;;;;;5111667;28;20103;-62
2023/04/15 04:30:46;;;;;;;7.55;4.63;;;;;;;;;;5111258;28;20019;-62
2023/04/15 04:33:12;;;;;;;7.18;4.57;;;;;;;;;;5111772;28;20020;-62
2023/04/15 04:35:38;;;;;;;6.75;5.35;;;;;;;;;;5111589;28;20024;-61
2023/04/15 04:38:04;;;;;;;6.47;4.85;;;;;;;;;;5111314;28;20027;-60
2023/04/15 04:40:30;;;;;;;8.65;5.00;;;;;;;;;;5110987;28;20515;-61
2023/04/15 04:42:56;;;;;;;6.72;4.43;;;;;;;;;;5111336;28;20023;-62
2023/04/15 04:45:22;;;;;;;7.75;4.35;;;;;;;;;;5110764;28;20033;-60
2023/04/15 04:47:49;;;;;;;7.53;4.88;;;;;;;;;;5111291;28;20034;-62
2023/04/15 04:50:15;;;;;;;6.10;4.13;;;;;;;;;;5111246;28;20396;-61
2023/04/15 04:52:41;;;;;;;6.57;4.32;;;;;;;;;;5111429;28;20069;-61
2023/04/15 04:55:08;;;;;;;6.43;4.55;;;;;;;;;;5111029;28;20035;-62
2023/04/15 04:57:38;;;;;;;5.75;4.32;;;;;;;;;;5111741;28;20475;-61
2023/04/15 05:00:05;;;;;;;6.88;4.70;;;;;;;;;;5114954;28;20103;-61
2023/04/15 05:02:31;;;;;;;6.25;4.43;;;;;;;;;;5114805;28;20353;-61
2023/04/15 05:04:57;;;;;;;10.65;5.38;;;;;;;;;;5114485;28;20109;-62
2023/04/15 05:07:23;;;;;;;6.43;4.57;;;;;;;;;;5114446;28;20498;-61
2023/04/15 05:09:49;;;;;;;7.95;5.07;;;;;;;;;;5114493;28;20015;-62
2023/04/15 05:12:17;;;;;;;7.03;5.05;;;;;;;;;;5114438;28;20051;-61
2023/04/15 05:14:43;;;;;;;8.57;5.13;;;;;;;;;;5114313;28;20015;-62
2023/04/15 05:17:10;;;;;;;7.15;5.53;;;;;;;;;;5114172;28;20015;-61
2023/04/15 05:19:36;;;;;;;7.47;4.72;;;;;;;;;;5114487;28;20127;-61
2023/04/15 05:22:02;;;;;;;7.28;4.47;;;;;;;;;;5114316;28;20181;-61
2023/04/15 05:24:28;;;;;;;10.25;5.65;;;;;;;;;;5114203;28;20028;-61
2023/04/15 05:26:55;;;;;;;11.10;5.55;;;;;;;;;;5114131;28;20111;-60
2023/04/15 05:29:21;;;;;;;8.50;5.05;;;;;;;;;;5114067;28;20345;-62
2023/04/15 05:31:47;;;;;;;9.55;5.40;;;;;;;;;;5114778;28;20031;-60
2023/04/15 05:34:15;;;;;;;9.55;5.75;;;;;;;;;;5114712;28;20421;-61
2023/04/15 05:36:41;;;;;;;10.10;5.38;;;;;;;;;;5114440;28;20020;-61
2023/04/15 05:39:07;;;;;;;11.63;5.88;;;;;;;;;;5114243;28;20372;-61
2023/04/15 05:41:34;;;;;;;9.50;5.78;;;;;;;;;;5114513;28;20020;-61
2023/04/15 05:44:00;;;;;;;9.73;6.40;;;;;;;;;;5114297;28;20024;-61
2023/04/15 05:46:26;;;;;;;8.73;5.75;;;;;;;;;;5112803;28;20043;-61
2023/04/15 05:48:52;;;;;;;9.65;5.82;;;;;;;;;;5114186;28;20063;-60
2023/04/15 05:51:18;;;;;;;7.97;5.32;;;;;;;;;;5113685;28;20019;-61
2023/04/15 05:53:45;;;;;;;10.32;5.65;;;;;;;;;;5114206;28;20096;-60
2023/04/15 05:56:11;;;;;;;8.88;5.47;;;;;;;;;;5114187;28;20028;-62
2023/04/15 05:58:37;;;;;;;9.57;5.97;;;;;;;;;;5114065;28;20024;-62
2023/04/15 06:01:03;;;;;;;6.72;4.95;;;;;;;;;;5113988;28;20521;-62
2023/04/15 06:03:29;;;;;;;9.10;5.32;;;;;;;;;;5114105;28;20392;-62
2023/04/15 06:05:56;;;;;;;9.35;5.32;;;;;;;;;;5113843;28;20024;-62
2023/04/15 06:08:22;;;;;;;7.80;5.60;;;;;;;;;;5113610;28;20019;-62
2023/04/15 06:10:48;;;;;;;8.15;5.40;;;;;;;;;;5113132;28;20035;-63
2023/04/15 06:13:14;;;;;;;8.73;5.43;;;;;;;;;;5112499;28;20028;-61
2023/04/15 06:15:40;;;;;;;8.68;5.22;;;;;;;;;;5113765;28;20043;-64
2023/04/15 06:18:06;;;;;;;7.10;5.00;;;;;;;;;;5113685;28;20033;-63
2023/04/15 06:20:32;;;;;;;6.78;4.75;;;;;;;;;;5113694;28;20024;-60
2023/04/15 06:22:58;;;;;;;6.65;4.80;;;;;;;;;;5113798;28;20019;-63
2023/04/15 06:25:24;;;;;;;6.35;4.93;;;;;;;;;;5113732;28;20028;-61
2023/04/15 06:27:50;;;;;;;9.07;5.05;;;;;;;;;;5113536;28;20106;-61
2023/04/15 06:30:16;;;;;;;6.60;5.05;;;;;;;;;;5113664;28;20024;-62
2023/04/15 06:32:42;;;;;;;6.63;4.90;;;;;;;;;;5113867;28;20065;-61
2023/04/15 06:35:08;;;;;;;6.30;4.95;;;;;;;;;;5111132;28;20020;-61
2023/04/15 06:37:35;;;;;;;7.50;4.57;;;;;;;;;;5112755;28;20024;-62
2023/04/15 06:40:01;;;;;;;7.18;5.07;;;;;;;;;;5113075;28;20038;-62
2023/04/15 06:42:27;;;;;;;5.68;4.47;;;;;;;;;;5113107;28;20099;-61
2023/04/15 06:44:53;;;;;;;7.75;4.75;;;;;;;;;;5112900;28;20024;-60
2023/04/15 06:47:19;;;;;;;6.13;4.43;;;;;;;;;;5112673;28;20112;-62
2023/04/15 06:49:45;;;;;;;8.40;5.03;;;;;;;;;;5112814;28;20027;-61
2023/04/15 06:52:11;;;;;;;7.80;4.50;;;;;;;;;;5112825;28;20387;-62
2023/04/15 06:54:37;;;;;;;8.50;5.65;;;;;;;;;;5112953;28;20036;-60
2023/04/15 06:57:04;;;;;;;5.80;4.57;;;;;;;;;;5112737;28;20030;-62
2023/04/15 06:59:30;;;;;;;7.13;4.55;;;;;;;;;;5111085;28;20034;-63
2023/04/15 07:01:56;;;;;;;8.50;5.18;;;;;;;;;;5112723;28;20015;-62
2023/04/15 07:04:23;;;;;;;6.15;4.53;;;;;;;;;;5112994;28;20035;-62
2023/04/15 07:06:49;;;;;;;6.32;4.53;;;;;;;;;;5112580;28;20016;-61
2023/04/15 07:09:15;;;;;;;4.95;4.15;;;;;;;;;;5112393;28;20507;-62
2023/04/15 07:11:41;;;;;;;5.78;4.30;;;;;;;;;;5112641;28;20045;-62
2023/04/15 07:14:07;;;;;;;7.18;4.47;;;;;;;;;;5112665;28;20024;-61
2023/04/15 07:16:33;;;;;;;6.03;4.05;;;;;;;;;;5112600;28;20023;-61
2023/04/15 07:18:59;;;;;;;5.50;4.25;;;;;;;;;;5112388;28;20108;-61
2023/04/15 07:21:26;;;;;;;5.45;4.18;;;;;;;;;;5112228;28;20026;-62
2023/04/15 07:23:52;;;;;;;6.55;4.40;;;;;;;;;;5112550;28;20024;-61
2023/04/15 07:26:18;;;;;;;6.28;3.95;;;;;;;;;;5112205;28;20416;-62
2023/04/15 07:28:45;;;;;;;6.82;4.22;;;;;;;;;;5112368;28;20023;-62
2023/04/15 07:31:12;;;;;;;7.43;4.50;;;;;;;;;;5112326;28;20019;-62
2023/04/15 07:33:38;;;;;;;5.63;4.13;;;;;;;;;;5112103;28;20491;-61
2023/04/15 07:36:04;;;;;;;5.88;4.35;;;;;;;;;;5112089;28;20027;-62
2023/04/15 07:38:30;;;;;;;6.40;4.32;;;;;;;;;;5112351;28;20365;-62
2023/04/15 07:40:57;;;;;;;5.25;3.95;;;;;;;;;;5112023;28;20505;-62
2023/04/15 07:43:23;;;;;;;6.47;4.50;;;;;;;;;;5111870;28;20028;-61
2023/04/15 07:45:49;;;;;;;5.30;4.15;;;;;;;;;;5111898;28;20054;-60
2023/04/15 07:48:15;;;;;;;5.07;3.67;;;;;;;;;;5111861;28;20028;-61
2023/04/15 07:50:42;;;;;;;6.28;4.43;;;;;;;;;;5111832;28;20054;-61
2023/04/15 07:53:08;;;;;;;6.55;4.85;;;;;;;;;;5111883;28;20425;-62
2023/04/15 07:55:34;;;;;;;5.95;4.60;;;;;;;;;;5111665;28;20024;-61
2023/04/15 07:58:00;;;;;;;5.50;4.15;;;;;;;;;;5112167;28;20107;-62
2023/04/15 08:00:27;;;;;;;5.97;4.03;;;;;;;;;;5111732;28;20457;-62
2023/04/15 08:02:53;;;;;;;6.95;4.18;;;;;;;;;;5111735;28;20077;-61
2023/04/15 08:05:19;;;;;;;5.93;4.28;;;;;;;;;;5111733;28;20421;-61
2023/04/15 08:07:45;;;;;;;5.18;3.90;;;;;;;;;;5111510;28;20479;-61
2023/04/15 08:10:11;;;;;;;8.13;4.40;;;;;;;;;;5111614;28;20527;-62
2023/04/15 08:12:37;;;;;;;5.55;4.13;;;;;;;;;;5111624;28;20499;-63
2023/04/15 08:15:04;;;;;;;4.97;3.97;;;;;;;;;;5111779;28;20020;-62
2023/04/15 08:17:30;;;;;;;5.22;4.10;;;;;;;;;;5111542;28;20024;-62
2023/04/15 08:19:56;;;;;;;5.78;4.70;;;;;;;;;;5111475;28;20035;-61
2023/04/15 08:22:22;;;;;;;5.82;4.32;;;;;;;;;;5111502;28;20099;-63
2023/04/15 08:24:48;;;;;;;5.38;3.80;;;;;;;;;;5111475;28;20366;-61
2023/04/15 08:27:14;;;;;;;7.13;4.30;;;;;;;;;;5111447;28;20444;-62
2023/04/15 08:29:40;;;;;;;5.32;4.30;;;;;;;;;;5111512;28;20019;-62
2023/04/15 08:32:07;;;;;;;5.22;4.43;;;;;;;;;;5112061;28;20102;-62
2023/04/15 08:34:33;;;;;;;5.00;3.97;;;;;;;;;;5115578;28;20028;-61
2023/04/15 08:36:59;;;;;;;4.43;3.88;;;;;;;;;;5115610;28;20057;-62
2023/04/15 08:39:26;;;;;;;5.60;4.43;;;;;;;;;;5115335;28;20384;-63
2023/04/15 08:41:57;;;;;;;5.32;4.25;;;;;;;;;;5115465;28;20024;-62
2023/04/15 08:44:25;;;;;;;4.20;3.80;;;;;;;;;;5115553;28;20047;-63
2023/04/15 08:46:51;;;;;;;6.63;4.18;;;;;;;;;;5115321;28;20035;-62
2023/04/15 08:49:18;;;;;;;5.35;4.15;;;;;;;;;;5115142;28;20035;-63
2023/04/15 08:51:45;;;;;;;7.10;3.55;;;;;;;;;;5115460;28;20023;-62
2023/04/15 08:54:11;;;;;;;4.10;3.70;;;;;;;;;;5113265;28;20054;-62
2023/04/15 08:56:38;;;;;;;3.75;3.40;;;;;;;;;;5115904;27;20015;-62
2023/04/15 08:59:05;;;;;;;4.85;3.90;;;;;;;;;;5096763;28;20119;-62
2023/04/15 09:01:31;;;;;;;6.95;3.60;;;;;;;;;;5094513;28;20047;-62
2023/04/15 09:03:58;;;;;;;5.22;4.15;;;;;;;;;;5094261;28;20031;-62
2023/04/15 09:06:25;;;;;;;4.10;3.65;;;;;;;;;;5111334;28;20023;-61
2023/04/15 09:08:51;;;;;;;3.85;3.40;;;;;;;;;;5114479;28;20023;-63
2023/04/15 09:11:18;;;;;;;4.47;3.60;;;;;;;;;;5114509;28;20035;-61
2023/04/15 09:13:45;;;;;;;4.60;3.55;;;;;;;;;;5114515;28;20051;-64
2023/04/15 09:16:11;;;;;;;5.30;3.42;;;;;;;;;;5114751;28;20501;-63
2023/04/15 09:18:37;;;;;;;3.90;3.50;;;;;;;;;;5114528;28;20031;-63
2023/04/15 09:21:09;;;;;;;3.90;3.53;;;;;;;;;;5114525;28;20024;-62
2023/04/15 09:23:35;;;;;;;;;;;;;;;;;;5114839;28;20023;-62
2023/04/15 09:26:02;;;;;;;4.97;3.13;;;;;;;;;;5114472;28;19910;-62
2023/04/15 09:28:28;;;;;;;3.28;2.97;;;;;;;;;;5114490;28;20069;-60
2023/04/15 09:31:01;;;;;;;3.10;2.80;;;;;;;;;;5114604;28;20037;-63
2023/04/15 09:33:28;;;;;;;4.68;3.38;;;;;;;;;;5114338;28;20028;-62
2023/04/15 09:35:56;;;;;;;3.20;2.90;;;;;;;;;;5114260;28;20497;-64
2023/04/15 09:38:22;;;;;;;3.22;2.88;;;;;;;;;;5114268;28;20034;-63
2023/04/15 09:40:48;;;;;;;5.47;3.28;;;;;;;;;;5114363;28;20019;-64
2023/04/15 09:43:16;;;;;;;3.88;3.25;;;;;;;;;;5113905;28;20024;-65
2023/04/15 09:45:49;;;;;;;4.25;2.88;;;;;;;;;;5113155;28;20051;-64
2023/04/15 09:48:22;;;;;;;3.33;3.03;;;;;;;;;;5114205;28;20503;-63
2023/04/15 09:50:49;;;;;;;3.30;3.00;;;;;;;;;;5114247;28;20023;-64
2023/04/15 09:53:19;;;;;;;4.38;3.10;;;;;;;;;;5114297;28;20023;-63
2023/04/15 09:55:46;;;;;;;3.05;2.75;;;;;;;;;;5113994;28;20035;-65
2023/04/15 09:58:22;;;;;;;3.47;3.17;;;;;;;;;;5099014;28;20039;-64
2023/04/15 10:00:49;;;;;;;4.82;3.17;;;;;;;;;;5112581;28;20043;-63
2023/04/15 10:03:22;;;;;;;4.38;3.40;;;;;;;;;;5113680;28;20031;-65
2023/04/15 10:05:49;;;;;;;3.20;2.90;;;;;;;;;;5113852;28;20023;-64
2023/04/15 10:08:19;;;;;;;3.42;2.97;;;;;;;;;;5113551;28;20068;-64
2023/04/15 10:10:46;;;;;;;4.65;3.00;;;;;;;;;;5099205;28;20383;-64
2023/04/15 10:13:17;;;;;;;7.05;2.90;;;;;;;;;;5107076;28;20031;-63
2023/04/15 10:15:46;;;;;;;4.10;2.80;;;;;;;;;;5113559;28;20024;-66
2023/04/15 10:18:16;;;;;;;5.10;3.30;;;;;;;;;;5113613;28;20062;-66
2023/04/15 10:20:42;;;;;;;4.28;3.42;;;;;;;;;;5113679;28;20027;-63
2023/04/15 10:23:08;;;;;;;4.38;2.97;;;;;;;;;;5113659;28;20145;-63
2023/04/15 10:25:36;;;;;;;6.40;3.17;;;;;;;;;;5113722;28;20031;-64
2023/04/15 10:28:02;;;;;;;3.95;3.03;;;;;;;;;;5113515;28;20024;-64
2023/04/15 10:30:30;;;;;;;4.30;3.40;;;;;;;;;;5113392;28;20031;-62
2023/04/15 10:32:56;;;;;;;4.50;3.22;;;;;;;;;;5113332;28;20026;-62
2023/04/15 10:35:22;;;;;;;4.95;3.05;;;;;;;;;;5113151;28;20023;-63
2023/04/15 10:37:48;;;;;;;5.30;3.10;;;;;;;;;;5113218;28;20328;-63
2023/04/15 10:40:25;;;;;;;5.32;3.10;;;;;;;;;;5113093;28;20055;-65
2023/04/15 10:42:52;;;;;;;4.95;2.85;;;;;;;;;;5112957;28;20102;-63
2023/04/15 10:45:18;;;;;;;5.60;3.20;;;;;;;;;;5112801;28;20748;-65
2023/04/15 10:47:44;;;;;;;9.15;3.05;;;;;;;;;;5112736;28;20069;-68
2023/04/15 10:50:11;;;;;;;7.35;3.30;;;;;;;;;;5113049;28;20024;-63
2023/04/15 10:52:43;;;;;;;6.13;3.35;;;;;;;;;;5112922;28;20031;-63
2023/04/15 10:55:18;;;;;;;4.45;3.15;;;;;;;;;;5112826;28;20020;-64
2023/04/15 10:57:44;;;;;;;5.30;3.50;;;;;;;;;;5112753;28;20031;-64
2023/04/15 11:00:11;;;;;;;6.82;3.90;;;;;;;;;;5112608;28;20392;-63
2023/04/15 11:02:43;;;;;;;7.38;3.55;;;;;;;;;;5112720;28;20476;-63
2023/04/15 11:05:09;;;;;;;;;;;;;;;;;;5113283;28;20031;-65
2023/04/15 11:07:38;;;;;;;9.30;3.50;;;;;;;;;;5112662;28;19908;-67
2023/04/15 11:10:13;;;;;;;6.85;3.55;;;;;;;;;;5112581;28;20016;-66
2023/04/15 11:12:40;;;;;;;6.57;3.78;;;;;;;;;;5112425;28;20443;-67
2023/04/15 11:15:25;;;;;;;4.47;3.72;;;;;;;;;;5110599;28;20414;-70
2023/04/15 11:17:52;;;;;;;6.22;3.75;;;;;;;;;;5112064;28;20020;-65
2023/04/15 11:20:18;;;;;;;7.32;4.28;;;;;;;;;;5112252;28;20024;-66
2023/04/15 11:22:51;;;;;;;6.38;4.72;;;;;;;;;;5112139;28;20563;-69
2023/04/15 11:25:27;;;;;;;8.45;4.43;;;;;;;;;;5111538;28;20471;-66
2023/04/15 11:27:54;;;;;;;5.05;3.78;;;;;;;;;;5112338;28;20027;-66
2023/04/15 11:30:21;;;;;;;6.13;3.70;;;;;;;;;;5112109;28;20056;-66
2023/04/15 11:32:48;;;;;;;7.35;4.60;;;;;;;;;;5112150;28;20023;-66
2023/04/15 11:35:15;;;;;;;5.38;4.07;;;;;;;;;;5112067;28;20024;-66
2023/04/15 11:37:42;;;;;;;6.55;4.15;;;;;;;;;;5111944;28;20028;-66
2023/04/15 11:40:08;;;;;;;9.60;4.90;;;;;;;;;;5111856;28;20035;-65
2023/04/15 11:42:34;;;;;;;6.97;4.30;;;;;;;;;;5111480;28;20020;-66
2023/04/15 11:45:30;;;;;;;8.38;4.47;;;;;;;;;;5111975;28;20102;-64
2023/04/15 11:48:04;;;;;;;8.52;4.57;;;;;;;;;;5102675;28;20055;-66
2023/04/15 11:50:30;;;;;;;7.72;3.90;;;;;;;;;;5111199;28;20439;-68
2023/04/15 11:53:01;;;;;;;5.20;3.45;;;;;;;;;;5111812;28;20491;-67
2023/04/15 11:55:28;;;;;;;6.32;3.60;;;;;;;;;;5111755;28;20034;-66
2023/04/15 11:58:12;;;;;;;5.93;3.95;;;;;;;;;;5111684;28;20552;-66
2023/04/15 12:00:40;;;;;;;3.75;3.33;;;;;;;;;;5111418;28;20100;-65
2023/04/15 12:03:18;;;;;;;7.10;3.42;;;;;;;;;;5111963;28;20119;-65
2023/04/15 12:06:02;;;;;;;6.50;3.83;;;;;;;;;;5111734;28;20054;-65
2023/04/15 12:08:47;;;;;;;4.82;3.08;;;;;;;;;;5110598;28;20031;-64
2023/04/15 12:11:14;;;;;;;5.68;2.97;;;;;;;;;;5111191;28;20086;-66
2023/04/15 12:13:43;;;;;;;6.95;3.22;;;;;;;;;;5111317;28;20016;-68
2023/04/15 12:16:09;;;;;;;6.30;3.08;;;;;;;;;;5111636;28;20050;-68
2023/04/15 12:18:37;;;;;;;7.38;3.22;;;;;;;;;;5111346;28;20124;-68
2023/04/15 12:21:10;;;;;;;6.18;3.10;;;;;;;;;;5111501;28;20035;-67
2023/04/15 12:23:37;;;;;;;5.32;2.72;;;;;;;;;;5111350;28;20480;-66
2023/04/15 12:26:06;;;;;;;4.45;2.67;;;;;;;;;;5111129;28;20611;-66
2023/04/15 12:28:35;;;;;;;6.00;2.80;;;;;;;;;;5111396;28;20016;-66
2023/04/15 12:31:07;;;;;;;5.97;2.58;;;;;;;;;;5111305;28;20487;-68
2023/04/15 12:33:33;;;;;;;8.73;3.17;;;;;;;;;;5111408;28;20039;-69
2023/04/15 12:36:00;;;;;;;6.57;2.80;;;;;;;;;;5111300;28;20020;-67
2023/04/15 12:38:26;;;;;;;6.30;3.45;;;;;;;;;;5111180;28;20024;-68
2023/04/15 12:40:52;;;;;;;6.57;3.05;;;;;;;;;;5111262;28;20519;-68
2023/04/15 12:43:18;;;;;;;9.00;3.97;;;;;;;;;;5111222;28;20027;-67
2023/04/15 12:45:44;;;;;;;6.07;2.50;;;;;;;;;;5111017;28;20096;-68
2023/04/15 12:48:10;;;;;;;5.05;2.58;;;;;;;;;;5111226;28;20049;-67
2023/04/15 12:50:36;;;;;;;6.03;3.28;;;;;;;;;;5110896;28;20355;-64
2023/04/15 12:53:03;;;;;;;4.95;2.85;;;;;;;;;;5111126;28;20159;-67
2023/04/15 12:55:29;;;;;;;4.85;2.67;;;;;;;;;;5111012;28;20019;-66
2023/04/15 12:57:56;;;;;;;6.05;3.05;;;;;;;;;;5111130;28;20028;-70
2023/04/15 13:00:22;;;;;;;5.20;2.72;;;;;;;;;;5110994;28;20023;-71
2023/04/15 13:02:48;;;;;;;6.55;3.00;;;;;;;;;;5111034;28;20028;-67
2023/04/15 13:05:15;;;;;;;6.95;2.97;;;;;;;;;;5108426;28;20034;-66
2023/04/15 13:07:41;;;;;;;7.00;3.42;;;;;;;;;;5111272;28;20075;-67
2023/04/15 13:10:08;;;;;;;8.68;3.70;;;;;;;;;;5110680;28;20030;-67
2023/04/15 13:12:35;;;;;;;7.50;3.22;;;;;;;;;;5109956;28;20028;-69
2023/04/15 13:15:02;;;;;;;6.55;3.40;;;;;;;;;;5111169;28;20059;-67
2023/04/15 13:17:28;;;;;;;7.13;3.50;;;;;;;;;;5111212;28;20024;-67
2023/04/15 13:19:54;;;;;;;8.23;3.75;;;;;;;;;;5113677;28;20040;-68
2023/04/15 13:22:20;;;;;;;4.30;3.22;;;;;;;;;;5114562;28;20057;-66
2023/04/15 13:24:46;;;;;;;5.80;3.50;;;;;;;;;;5114720;28;20055;-67
2023/04/15 13:27:12;;;;;;;4.68;2.85;;;;;;;;;;5114526;28;20119;-66
2023/04/15 13:29:39;;;;;;;8.95;3.05;;;;;;;;;;5114484;28;20228;-64
2023/04/15 13:32:05;;;;;;;7.20;3.40;;;;;;;;;;5113127;28;20027;-65
2023/04/15 13:34:31;;;;;;;5.93;3.33;;;;;;;;;;5113887;28;20016;-67
2023/04/15 13:36:58;;;;;;;6.50;2.97;;;;;;;;;;5112950;28;20047;-67
2023/04/15 13:39:24;;;;;;;7.32;2.92;;;;;;;;;;5111184;28;20800;-69
2023/04/15 13:41:50;;;;;;;5.25;3.00;;;;;;;;;;5094618;28;20031;-67
2023/04/15 13:44:16;;;;;;;4.78;2.40;;;;;;;;;;5096284;28;20056;-68
2023/04/15 13:46:42;;;;;;;4.35;2.50;;;;;;;;;;5110336;28;20530;-70
2023/04/15 13:49:08;;;;;;;5.88;2.80;;;;;;;;;;5101448;28;20028;-67
2023/04/15 13:51:37;;;;;;;4.88;2.50;;;;;;;;;;5093390;28;20020;-68
2023/04/15 13:54:03;;;;;;;4.93;3.05;;;;;;;;;;5093733;28;20032;-68
2023/04/15 13:56:29;;;;;;;6.85;3.03;;;;;;;;;;5093571;28;20022;-67
2023/04/15 13:58:57;;;;;;;5.38;2.70;;;;;;;;;;5093422;28;20032;-67
2023/04/15 14:01:24;;;;;;;7.57;2.60;;;;;;;;;;5093357;28;20434;-67
2023/04/15 14:03:50;;;;;;;6.95;2.55;;;;;;;;;;5093573;28;20103;-66
2023/04/15 14:06:16;;;;;;;7.63;2.63;;;;;;;;;;5093411;28;20099;-68
2023/04/15 14:08:42;;;;;;;5.15;2.50;;;;;;;;;;5093514;28;20066;-65
2023/04/15 14:11:08;;;;;;;3.88;2.40;;;;;;;;;;5093212;28;20098;-69
2023/04/15 14:13:34;;;;;;;6.63;2.75;;;;;;;;;;5093243;28;20478;-68
2023/04/15 14:16:00;;;;;;;7.72;3.63;;;;;;;;;;5093041;28;20476;-68
2023/04/15 14:18:26;;;;;;;5.53;2.70;;;;;;;;;;5092876;28;20074;-65
2023/04/15 14:20:52;;;;;;;4.45;2.95;;;;;;;;;;5093156;28;20046;-70
2023/04/15 14:23:18;;;;;;;5.28;3.33;;;;;;;;;;5093003;28;20047;-68
2023/04/15 14:25:44;;;;;;;5.68;2.90;;;;;;;;;;5093106;28;20028;-69
2023/04/15 14:28:10;;;;;;;3.33;2.58;;;;;;;;;;5092843;28;20025;-67
2023/04/15 14:30:36;;;;;;;6.15;3.13;;;;;;;;;;5092112;28;20035;-70
2023/04/15 14:33:03;;;;;;;5.03;3.10;;;;;;;;;;5092933;28;20024;-72
2023/04/15 14:35:29;;;;;;;6.50;2.97;;;;;;;;;;5092673;28;20035;-70